Zaragoza, Spain
Current Conditions -  °F | °C
As of 12:00 AM on Friday 21 Nov 2014 (Local Time) from LEZG Reporting Station
Haze Haze  
Wind Chill: 50°   Ceiling: 1300
Heat Index: 50°   Visibility: 2.3mi
Dew Point: 48°   Wind: 1mph
Humidity: 94%   Direction: NA
Pressure: 30.15"   Gusts: NA
Location:  41.66°N, 0.88°W
Report Text: LEZG 202300Z VRB01KT 3800 BR BKN013 10/09 Q1021
Loading
Personal Weather Stations






























Interactive Weather Map New forecast layout! Learn more

10-Day Weather Forecast

Advertisements
Track Severe Weather on mobile